Time;durP1;ratioP1;P1;durP2;ratioP2;P2;SDS_P1;SDS_P2;PMS_P1;PMS_P2;Temp;Humidity;BMP_temperature;BMP_pressure;BME280_temperature;BME280_humidity;BME280_pressure;Samples;Min_cycle;Max_cycle;Signal;HPM_P1;HPM_P2
2023/04/04 00:01:44;;;;;;;1.67;1.57;;;;;;;;;;5098897;28;20666;-78
2023/04/04 00:04:11;;;;;;;1.90;1.70;;;;;;;;;;5098388;28;20215;-79
2023/04/04 00:06:43;;;;;;;2.30;1.70;;;;;;;;;;5105430;28;20265;-78
2023/04/04 00:09:11;;;;;;;1.70;1.60;;;;;;;;;;5105657;28;20231;-79
2023/04/04 00:14:29;;;;;;;1.13;1.03;;;;;;;;;;5076398;28;20203;-79
2023/04/04 00:19:36;;;;;;;0.50;0.50;;;;;;;;;;5089104;28;20203;-79
2023/04/04 00:22:03;;;;;;;3.23;0.93;;;;;;;;;;5111593;28;20291;-80
2023/04/04 00:24:31;;;;;;;0.70;0.60;;;;;;;;;;5099463;28;20670;-78
2023/04/04 00:26:58;;;;;;;0.80;0.80;;;;;;;;;;5112023;28;20291;-78
2023/04/04 00:29:25;;;;;;;0.77;0.77;;;;;;;;;;5111994;28;20207;-78
2023/04/04 00:31:51;;;;;;;0.60;0.60;;;;;;;;;;5098394;28;20200;-78
2023/04/04 00:34:18;;;;;;;0.70;0.70;;;;;;;;;;5111627;28;20666;-78
2023/04/04 00:36:45;;;;;;;0.80;0.80;;;;;;;;;;5097706;28;20232;-78
2023/04/04 00:39:12;;;;;;;0.90;0.90;;;;;;;;;;5103387;28;20204;-79
2023/04/04 00:41:40;;;;;;;1.37;1.00;;;;;;;;;;5092916;28;20674;-78
2023/04/04 00:44:07;;;;;;;0.70;0.70;;;;;;;;;;5112181;28;20214;-78
2023/04/04 00:46:34;;;;;;;0.90;0.90;;;;;;;;;;5109399;28;20192;-78
2023/04/04 00:49:00;;;;;;;1.13;1.10;;;;;;;;;;5101197;28;20239;-78
2023/04/04 00:51:27;;;;;;;0.70;0.70;;;;;;;;;;5111328;28;20686;-78
2023/04/04 00:53:54;;;;;;;0.90;0.90;;;;;;;;;;5111550;28;20204;-78
2023/04/04 00:56:22;;;;;;;0.73;0.73;;;;;;;;;;5108226;28;20236;-78
2023/04/04 00:58:50;;;;;;;1.80;1.30;;;;;;;;;;5091322;28;20196;-77
2023/04/04 01:01:17;;;;;;;0.97;0.97;;;;;;;;;;5094733;28;20207;-78
2023/04/04 01:03:44;;;;;;;1.60;1.50;;;;;;;;;;5101138;28;20219;-77
2023/04/04 01:06:11;;;;;;;1.10;1.10;;;;;;;;;;5104655;28;20254;-78
2023/04/04 01:08:38;;;;;;;1.40;1.30;;;;;;;;;;5102374;28;20227;-78
2023/04/04 01:11:05;;;;;;;1.90;1.80;;;;;;;;;;5094205;28;20207;-77
2023/04/04 01:13:32;;;;;;;1.23;1.23;;;;;;;;;;5102025;28;20218;-77
2023/04/04 01:16:00;;;;;;;1.63;1.53;;;;;;;;;;5110959;28;20227;-78
2023/04/04 01:18:27;;;;;;;1.60;1.50;;;;;;;;;;5111241;28;20773;-78
2023/04/04 01:20:57;;;;;;;1.70;1.60;;;;;;;;;;5092785;28;20257;-78
2023/04/04 01:23:25;;;;;;;1.40;1.30;;;;;;;;;;5103367;28;20204;-78
2023/04/04 01:26:02;;;;;;;1.20;1.10;;;;;;;;;;5111075;28;20211;-78
2023/04/04 01:28:29;;;;;;;1.20;1.10;;;;;;;;;;5111124;28;20260;-78
2023/04/04 01:30:55;;;;;;;0.60;0.60;;;;;;;;;;5103684;28;20671;-78
2023/04/04 01:33:27;;;;;;;0.77;0.73;;;;;;;;;;5105015;28;20207;-78
2023/04/04 01:36:03;;;;;;;0.70;0.70;;;;;;;;;;5099670;28;20227;-77
2023/04/04 01:38:38;;;;;;;0.70;0.50;;;;;;;;;;5107973;28;20204;-78
2023/04/04 01:41:09;;;;;;;0.57;0.57;;;;;;;;;;5101501;28;20681;-78
2023/04/04 01:43:36;;;;;;;0.63;0.63;;;;;;;;;;5097581;28;20204;-78
2023/04/04 01:46:03;;;;;;;0.80;0.80;;;;;;;;;;5099973;28;20214;-78
2023/04/04 01:48:29;;;;;;;0.67;0.67;;;;;;;;;;5104171;28;20208;-78
2023/04/04 01:50:56;;;;;;;0.80;0.80;;;;;;;;;;5102250;28;20761;-78
2023/04/04 01:53:23;;;;;;;1.20;1.10;;;;;;;;;;5097487;28;20596;-78
2023/04/04 01:55:50;;;;;;;1.10;1.10;;;;;;;;;;5099103;28;20228;-78
2023/04/04 01:58:18;;;;;;;1.20;1.10;;;;;;;;;;5109581;28;20625;-79
2023/04/04 02:00:45;;;;;;;2.07;1.97;;;;;;;;;;5111279;28;20199;-78
2023/04/04 02:03:11;;;;;;;1.20;1.20;;;;;;;;;;5100132;28;20684;-79
2023/04/04 02:05:39;;;;;;;1.20;1.20;;;;;;;;;;5114751;28;20199;-78
2023/04/04 02:08:06;;;;;;;1.53;1.43;;;;;;;;;;5101093;28;20294;-81
2023/04/04 02:10:33;;;;;;;1.30;1.20;;;;;;;;;;5114715;28;20210;-79
2023/04/04 02:13:00;;;;;;;1.67;1.57;;;;;;;;;;5114975;28;20207;-78
2023/04/04 02:15:28;;;;;;;1.37;1.30;;;;;;;;;;5114244;28;20223;-78
2023/04/04 02:17:55;;;;;;;1.60;1.50;;;;;;;;;;5107349;28;20261;-79
2023/04/04 02:20:22;;;;;;;1.77;1.50;;;;;;;;;;5094370;28;20214;-78
2023/04/04 02:22:53;;;;;;;1.60;1.50;;;;;;;;;;5101802;28;20220;-79
2023/04/04 02:25:19;;;;;;;1.00;1.00;;;;;;;;;;5099365;28;20291;-79
2023/04/04 02:27:46;;;;;;;1.40;1.30;;;;;;;;;;5101973;28;20674;-79
2023/04/04 02:30:14;;;;;;;1.00;0.90;;;;;;;;;;5100699;28;20598;-79
2023/04/04 02:32:42;;;;;;;0.90;0.90;;;;;;;;;;5105612;28;20208;-79
2023/04/04 02:35:09;;;;;;;1.33;1.33;;;;;;;;;;5096028;28;20203;-79
2023/04/04 02:37:36;;;;;;;1.23;1.13;;;;;;;;;;5114570;28;20199;-79
2023/04/04 02:40:02;;;;;;;1.30;1.20;;;;;;;;;;5113772;28;20208;-79
2023/04/04 02:42:29;;;;;;;1.67;1.23;;;;;;;;;;5113877;28;20635;-78
2023/04/04 02:44:56;;;;;;;0.93;0.93;;;;;;;;;;5114580;28;20215;-78
2023/04/04 02:47:23;;;;;;;1.00;1.00;;;;;;;;;;5113632;28;20204;-78
2023/04/04 02:49:51;;;;;;;0.87;0.87;;;;;;;;;;5100589;28;20238;-78
2023/04/04 02:52:18;;;;;;;1.07;1.00;;;;;;;;;;5114247;28;20218;-79
2023/04/04 02:54:45;;;;;;;1.87;1.77;;;;;;;;;;5097076;28;20211;-79
2023/04/04 02:57:11;;;;;;;2.00;1.90;;;;;;;;;;5103499;28;20235;-78
2023/04/04 02:59:38;;;;;;;1.90;1.80;;;;;;;;;;5109966;28;20212;-78
2023/04/04 03:02:05;;;;;;;3.43;3.23;;;;;;;;;;5093314;28;20253;-78
2023/04/04 03:04:32;;;;;;;8.27;7.57;;;;;;;;;;5106947;28;20200;-78
2023/04/04 03:07:00;;;;;;;2.00;1.90;;;;;;;;;;5093287;28;20765;-78
2023/04/04 03:09:26;;;;;;;0.97;0.97;;;;;;;;;;5097921;28;20231;-78
2023/04/04 03:11:53;;;;;;;0.67;0.67;;;;;;;;;;5113436;28;20211;-78
2023/04/04 03:14:20;;;;;;;0.30;0.30;;;;;;;;;;5113250;28;20211;-78
2023/04/04 03:16:48;;;;;;;0.43;0.43;;;;;;;;;;5102071;28;20717;-78
2023/04/04 03:19:15;;;;;;;0.63;0.63;;;;;;;;;;5093155;28;20202;-78
2023/04/04 03:21:42;;;;;;;0.57;0.57;;;;;;;;;;5104816;28;20207;-77
2023/04/04 03:24:11;;;;;;;1.03;0.97;;;;;;;;;;5108614;28;20196;-78
2023/04/04 03:26:38;;;;;;;1.70;1.60;;;;;;;;;;5104977;28;20239;-77
2023/04/04 03:29:05;;;;;;;1.20;1.03;;;;;;;;;;5107473;28;20281;-78
2023/04/04 03:31:34;;;;;;;0.60;0.60;;;;;;;;;;5092795;28;20243;-77
2023/04/04 03:34:01;;;;;;;0.50;0.50;;;;;;;;;;5106148;28;20237;-78
2023/04/04 03:36:28;;;;;;;0.67;0.63;;;;;;;;;;5092815;28;20714;-77
2023/04/04 03:38:54;;;;;;;0.33;0.33;;;;;;;;;;5093015;28;20311;-78
2023/04/04 03:41:22;;;;;;;0.60;0.60;;;;;;;;;;5103201;28;20203;-78
2023/04/04 03:43:49;;;;;;;0.87;0.87;;;;;;;;;;5112602;28;20634;-78
2023/04/04 03:46:16;;;;;;;0.70;0.70;;;;;;;;;;5112793;28;20211;-78
2023/04/04 03:48:43;;;;;;;0.67;0.53;;;;;;;;;;5094340;28;20207;-78
2023/04/04 03:51:10;;;;;;;0.50;0.50;;;;;;;;;;5092710;28;20200;-78
2023/04/04 03:53:37;;;;;;;0.70;0.70;;;;;;;;;;5105853;28;20208;-77
2023/04/04 03:56:04;;;;;;;0.70;0.70;;;;;;;;;;5103405;28;20774;-78
2023/04/04 03:58:32;;;;;;;1.33;0.70;;;;;;;;;;5098641;28;20219;-78
2023/04/04 04:00:59;;;;;;;0.30;0.30;;;;;;;;;;5100492;28;20215;-78
2023/04/04 04:03:26;;;;;;;0.90;0.90;;;;;;;;;;5092127;28;20298;-78
2023/04/04 04:05:54;;;;;;;0.50;0.50;;;;;;;;;;5104579;28;20196;-78
2023/04/04 04:08:21;;;;;;;0.40;0.40;;;;;;;;;;5111858;28;20260;-78
2023/04/04 04:10:48;;;;;;;0.80;0.80;;;;;;;;;;5110180;28;20596;-78
2023/04/04 04:13:14;;;;;;;0.20;0.20;;;;;;;;;;5100743;28;20214;-79
2023/04/04 04:15:43;;;;;;;0.40;0.40;;;;;;;;;;5109784;28;20203;-77
2023/04/04 04:18:09;;;;;;;1.40;1.23;;;;;;;;;;5092073;28;20226;-77
2023/04/04 04:20:36;;;;;;;0.87;0.87;;;;;;;;;;5104672;28;20204;-77
2023/04/04 04:23:03;;;;;;;1.00;1.00;;;;;;;;;;5090621;28;20196;-77
2023/04/04 04:25:30;;;;;;;1.23;1.10;;;;;;;;;;5090519;28;20204;-78
2023/04/04 04:27:57;;;;;;;0.80;0.80;;;;;;;;;;5101085;28;20278;-77
2023/04/04 04:30:24;;;;;;;2.23;2.13;;;;;;;;;;5095068;28;20208;-78
2023/04/04 04:32:52;;;;;;;2.70;2.50;;;;;;;;;;5091015;28;20192;-77
2023/04/04 04:35:19;;;;;;;1.90;1.80;;;;;;;;;;5094473;28;20252;-77
2023/04/04 04:37:46;;;;;;;1.80;1.70;;;;;;;;;;5111805;28;20227;-78
2023/04/04 04:40:15;;;;;;;1.83;1.73;;;;;;;;;;5094154;28;20279;-78
2023/04/04 04:42:44;;;;;;;1.50;1.40;;;;;;;;;;5090835;28;20204;-78
2023/04/04 04:45:11;;;;;;;0.90;0.90;;;;;;;;;;5104859;28;20266;-78
2023/04/04 04:47:38;;;;;;;1.20;1.20;;;;;;;;;;5091125;28;20207;-78
2023/04/04 04:50:07;;;;;;;1.30;1.20;;;;;;;;;;5104533;28;20621;-78
2023/04/04 04:52:36;;;;;;;1.90;1.80;;;;;;;;;;5090997;28;20581;-77
2023/04/04 04:55:03;;;;;;;3.20;3.00;;;;;;;;;;5091163;28;20250;-77
2023/04/04 04:57:30;;;;;;;5.17;4.67;;;;;;;;;;5091013;28;20301;-80
2023/04/04 04:59:57;;;;;;;5.77;5.07;;;;;;;;;;5091441;28;20208;-77
2023/04/04 05:02:24;;;;;;;4.67;4.27;;;;;;;;;;5104438;28;20639;-78
2023/04/04 05:04:51;;;;;;;2.30;2.20;;;;;;;;;;5098499;28;20204;-77
2023/04/04 05:07:19;;;;;;;2.60;2.40;;;;;;;;;;5097143;28;20257;-78
2023/04/04 05:09:45;;;;;;;2.83;2.63;;;;;;;;;;5091304;28;20224;-78
2023/04/04 05:12:12;;;;;;;2.60;2.40;;;;;;;;;;5090755;28;20670;-80
2023/04/04 05:14:39;;;;;;;2.87;2.20;;;;;;;;;;5097371;28;20212;-77
2023/04/04 05:17:06;;;;;;;2.97;2.77;;;;;;;;;;5111054;28;20253;-78
2023/04/04 05:19:32;;;;;;;3.43;3.13;;;;;;;;;;5111188;28;20260;-77
2023/04/04 05:21:59;;;;;;;3.97;3.67;;;;;;;;;;5097196;28;20582;-77
2023/04/04 05:24:27;;;;;;;3.40;3.10;;;;;;;;;;5103685;28;20269;-77
2023/04/04 05:26:54;;;;;;;3.10;2.90;;;;;;;;;;5090866;28;20272;-77
2023/04/04 05:29:21;;;;;;;3.47;3.27;;;;;;;;;;5098755;28;20219;-78
2023/04/04 05:31:47;;;;;;;4.63;4.33;;;;;;;;;;5109746;28;20222;-81
2023/04/04 05:34:14;;;;;;;4.27;3.87;;;;;;;;;;5091067;28;20207;-77
2023/04/04 05:36:41;;;;;;;3.47;3.17;;;;;;;;;;5105765;28;20304;-78
2023/04/04 05:39:08;;;;;;;3.77;3.47;;;;;;;;;;5094991;28;20566;-78
2023/04/04 05:41:36;;;;;;;8.03;7.23;;;;;;;;;;5097245;28;20208;-78
2023/04/04 05:44:03;;;;;;;4.97;4.57;;;;;;;;;;5105894;28;20204;-79
2023/04/04 05:46:30;;;;;;;10.03;5.43;;;;;;;;;;5095174;28;20211;-78
2023/04/04 05:48:57;;;;;;;6.90;6.30;;;;;;;;;;5094975;28;20212;-78
2023/04/04 05:51:24;;;;;;;8.10;4.97;;;;;;;;;;5107907;28;20277;-77
2023/04/04 05:53:51;;;;;;;5.60;5.20;;;;;;;;;;5094527;28;20713;-78
2023/04/04 05:56:17;;;;;;;4.63;4.23;;;;;;;;;;5094320;28;20200;-83
2023/04/04 05:58:46;;;;;;;4.03;3.73;;;;;;;;;;5094795;28;20204;-77
2023/04/04 06:01:12;;;;;;;4.73;4.43;;;;;;;;;;5098444;28;20264;-77
2023/04/04 06:03:39;;;;;;;5.07;4.57;;;;;;;;;;5103817;28;20204;-77
2023/04/04 06:06:06;;;;;;;9.00;6.60;;;;;;;;;;5094147;28;20204;-77
2023/04/04 06:08:33;;;;;;;4.20;3.80;;;;;;;;;;5105555;28;20284;-77
2023/04/04 06:11:00;;;;;;;4.90;4.50;;;;;;;;;;5099477;28;20226;-77
2023/04/04 06:13:27;;;;;;;5.30;4.80;;;;;;;;;;5103949;28;20673;-77
2023/04/04 06:15:55;;;;;;;8.43;7.73;;;;;;;;;;5093850;28;20205;-77
2023/04/04 06:18:21;;;;;;;13.33;11.93;;;;;;;;;;5094152;28;20224;-78
2023/04/04 06:20:48;;;;;;;4.60;4.30;;;;;;;;;;5094178;28;20201;-83
2023/04/04 06:23:15;;;;;;;6.43;5.83;;;;;;;;;;5094060;28;20238;-78
2023/04/04 06:25:41;;;;;;;4.67;4.37;;;;;;;;;;5112536;28;20196;-78
2023/04/04 06:28:09;;;;;;;4.43;4.03;;;;;;;;;;5102331;28;20819;-78
2023/04/04 06:30:37;;;;;;;4.90;4.50;;;;;;;;;;5094285;28;20235;-78
2023/04/04 06:33:06;;;;;;;3.87;3.50;;;;;;;;;;5106263;28;20303;-78
2023/04/04 06:35:34;;;;;;;3.33;2.90;;;;;;;;;;5100412;28;20196;-77
2023/04/04 06:38:02;;;;;;;5.47;4.97;;;;;;;;;;5113630;28;20311;-78
2023/04/04 06:40:29;;;;;;;3.80;3.50;;;;;;;;;;5100483;28;20279;-79
2023/04/04 06:42:57;;;;;;;3.30;3.10;;;;;;;;;;5114530;28;20207;-79
2023/04/04 06:45:24;;;;;;;3.13;2.93;;;;;;;;;;5100288;28;20208;-79
2023/04/04 06:47:52;;;;;;;3.30;3.00;;;;;;;;;;5099589;28;20635;-80
2023/04/04 06:50:21;;;;;;;2.77;2.57;;;;;;;;;;5094250;28;20204;-79
2023/04/04 06:52:47;;;;;;;2.60;2.40;;;;;;;;;;5107380;28;20231;-79
2023/04/04 06:55:14;;;;;;;3.70;3.40;;;;;;;;;;5101678;28;20562;-79
2023/04/04 06:57:41;;;;;;;2.93;2.70;;;;;;;;;;5113644;28;20231;-79
2023/04/04 07:00:09;;;;;;;3.03;2.73;;;;;;;;;;5113731;28;20575;-79
2023/04/04 07:02:36;;;;;;;4.67;4.27;;;;;;;;;;5100190;28;20293;-79
2023/04/04 07:05:03;;;;;;;6.10;5.60;;;;;;;;;;5113701;28;20290;-78
2023/04/04 07:07:31;;;;;;;6.10;5.60;;;;;;;;;;5112509;28;20195;-78
2023/04/04 07:09:58;;;;;;;4.50;4.10;;;;;;;;;;5093315;28;20232;-78
2023/04/04 07:12:25;;;;;;;3.80;3.50;;;;;;;;;;5108415;28;20207;-78
2023/04/04 07:14:52;;;;;;;3.57;3.37;;;;;;;;;;5113339;28;20211;-78
2023/04/04 07:17:18;;;;;;;3.53;3.33;;;;;;;;;;5110864;28;20250;-78
2023/04/04 07:19:45;;;;;;;3.87;3.47;;;;;;;;;;5102216;28;20215;-78
2023/04/04 07:22:13;;;;;;;3.30;3.10;;;;;;;;;;5110692;28;20688;-78
2023/04/04 07:24:43;;;;;;;4.30;3.90;;;;;;;;;;5092581;28;20253;-78
2023/04/04 07:27:10;;;;;;;3.20;3.00;;;;;;;;;;5106667;28;20197;-78
2023/04/04 07:29:36;;;;;;;4.63;4.23;;;;;;;;;;5103016;28;20260;-78
2023/04/04 07:32:03;;;;;;;5.50;5.07;;;;;;;;;;5096282;28;20196;-79
2023/04/04 07:34:30;;;;;;;6.93;6.33;;;;;;;;;;5103101;28;20218;-78
2023/04/04 07:36:57;;;;;;;5.03;4.63;;;;;;;;;;5095734;28;20282;-78
2023/04/04 07:39:24;;;;;;;3.63;3.33;;;;;;;;;;5103148;28;20196;-78
2023/04/04 07:41:52;;;;;;;3.60;3.30;;;;;;;;;;5095203;28;20253;-78
2023/04/04 07:44:19;;;;;;;3.27;3.03;;;;;;;;;;5104304;28;20298;-79
2023/04/04 07:46:45;;;;;;;4.43;4.07;;;;;;;;;;5107896;28;20215;-78
2023/04/04 07:49:12;;;;;;;3.07;2.87;;;;;;;;;;5092988;28;20214;-79
2023/04/04 07:51:39;;;;;;;4.10;3.80;;;;;;;;;;5106341;28;20204;-78
2023/04/04 07:54:07;;;;;;;7.33;6.70;;;;;;;;;;5092473;28;20196;-78
2023/04/04 07:56:33;;;;;;;4.60;4.30;;;;;;;;;;5096871;28;20196;-78
2023/04/04 07:59:02;;;;;;;3.43;3.23;;;;;;;;;;5100378;28;20233;-78
2023/04/04 08:01:29;;;;;;;3.50;3.20;;;;;;;;;;5096904;28;20195;-78
2023/04/04 08:03:56;;;;;;;3.60;3.30;;;;;;;;;;5099668;28;20196;-78
2023/04/04 08:06:23;;;;;;;4.03;3.70;;;;;;;;;;5105471;28;20351;-85
2023/04/04 08:08:51;;;;;;;2.80;2.60;;;;;;;;;;5091905;28;20702;-77
2023/04/04 08:11:17;;;;;;;2.53;2.33;;;;;;;;;;5097823;28;20210;-78
2023/04/04 08:13:44;;;;;;;3.10;2.90;;;;;;;;;;5099162;28;20257;-78
2023/04/04 08:16:12;;;;;;;12.23;8.50;;;;;;;;;;5097923;28;20751;-78
2023/04/04 08:18:39;;;;;;;5.60;4.57;;;;;;;;;;5112287;28;20223;-78
2023/04/04 08:21:06;;;;;;;4.80;4.13;;;;;;;;;;5105259;28;20200;-78
2023/04/04 08:23:34;;;;;;;11.13;7.33;;;;;;;;;;5091854;28;20204;-78
2023/04/04 08:26:01;;;;;;;2.87;2.67;;;;;;;;;;5091387;28;20217;-78
2023/04/04 08:28:28;;;;;;;2.40;2.20;;;;;;;;;;5105554;28;20203;-79
2023/04/04 08:30:55;;;;;;;5.87;5.37;;;;;;;;;;5099055;28;20581;-78
2023/04/04 08:33:23;;;;;;;8.27;7.43;;;;;;;;;;5111648;28;20199;-79
2023/04/04 08:35:50;;;;;;;9.20;8.40;;;;;;;;;;5091606;28;20300;-78
2023/04/04 08:38:17;;;;;;;6.50;5.97;;;;;;;;;;5105212;28;20231;-79
2023/04/04 08:40:46;;;;;;;4.57;4.20;;;;;;;;;;5099359;28;20219;-79
2023/04/04 08:43:15;;;;;;;3.80;3.37;;;;;;;;;;5111816;28;20246;-78
2023/04/04 08:45:44;;;;;;;2.80;2.60;;;;;;;;;;5111830;28;20207;-78
2023/04/04 08:48:11;;;;;;;2.40;2.30;;;;;;;;;;5097983;28;20207;-78
2023/04/04 08:50:40;;;;;;;3.00;2.77;;;;;;;;;;5101851;28;20208;-78
2023/04/04 08:53:08;;;;;;;2.97;2.77;;;;;;;;;;5104967;28;20242;-78
2023/04/04 08:55:35;;;;;;;4.27;3.70;;;;;;;;;;5101569;28;20203;-78
2023/04/04 08:58:02;;;;;;;3.37;3.10;;;;;;;;;;5107578;28;20212;-78
2023/04/04 09:00:29;;;;;;;7.23;6.63;;;;;;;;;;5090991;28;20203;-78
2023/04/04 09:03:00;;;;;;;6.93;6.33;;;;;;;;;;5095755;28;20200;-78
2023/04/04 09:05:28;;;;;;;5.27;4.77;;;;;;;;;;5111340;28;20204;-78
2023/04/04 09:07:58;;;;;;;3.13;2.90;;;;;;;;;;5110902;28;20206;-79
2023/04/04 09:10:25;;;;;;;3.23;3.03;;;;;;;;;;5111358;28;20254;-78
2023/04/04 09:12:52;;;;;;;3.07;2.87;;;;;;;;;;5110996;28;20231;-78
2023/04/04 09:15:19;;;;;;;3.40;3.10;;;;;;;;;;5111106;28;20199;-78
2023/04/04 09:17:46;;;;;;;2.87;2.67;;;;;;;;;;5091354;28;20231;-78
2023/04/04 09:20:39;;;;;;;3.80;3.43;;;;;;;;;;5103649;28;20245;-78
2023/04/04 09:23:08;;;;;;;7.03;6.33;;;;;;;;;;5091080;28;20208;-78
2023/04/04 09:25:36;;;;;;;5.60;5.20;;;;;;;;;;5108019;28;20199;-78
2023/04/04 09:28:04;;;;;;;3.27;2.97;;;;;;;;;;5099985;28;20574;-78
2023/04/04 09:30:32;;;;;;;3.37;3.17;;;;;;;;;;5108617;28;20200;-78
2023/04/04 09:33:01;;;;;;;8.27;7.47;;;;;;;;;;5110962;28;20286;-78
2023/04/04 09:35:28;;;;;;;5.93;5.43;;;;;;;;;;5097045;28;20272;-77
2023/04/04 09:37:55;;;;;;;4.90;4.47;;;;;;;;;;5099009;28;20224;-78
2023/04/04 09:40:25;;;;;;;3.80;3.50;;;;;;;;;;5090223;28;20207;-78
2023/04/04 09:42:54;;;;;;;4.57;4.27;;;;;;;;;;5090555;28;20291;-77
2023/04/04 09:45:20;;;;;;;3.27;3.07;;;;;;;;;;5091127;28;20196;-78
2023/04/04 09:47:47;;;;;;;3.83;3.53;;;;;;;;;;5090606;28;20215;-77
2023/04/04 09:50:21;;;;;;;3.93;3.63;;;;;;;;;;5090447;28;20697;-81
2023/04/04 09:52:48;;;;;;;3.50;3.30;;;;;;;;;;5090283;28;20590;-78
2023/04/04 09:55:15;;;;;;;4.30;4.00;;;;;;;;;;5090531;28;20200;-78
2023/04/04 09:57:44;;;;;;;3.57;3.27;;;;;;;;;;5103782;28;20200;-77
2023/04/04 10:00:12;;;;;;;3.60;3.40;;;;;;;;;;5098424;28;20199;-78
2023/04/04 10:02:40;;;;;;;3.73;3.50;;;;;;;;;;5096789;28;20208;-77
2023/04/04 10:05:11;;;;;;;5.67;5.27;;;;;;;;;;5110521;28;20196;-77
2023/04/04 10:07:43;;;;;;;5.27;4.77;;;;;;;;;;5108000;28;20225;-77
2023/04/04 10:10:10;;;;;;;4.77;4.37;;;;;;;;;;5100840;28;20238;-77
2023/04/04 10:12:37;;;;;;;4.43;4.13;;;;;;;;;;5093385;28;20200;-77
2023/04/04 10:15:07;;;;;;;3.93;3.63;;;;;;;;;;5100848;28;20375;-78
2023/04/04 10:17:37;;;;;;;6.20;5.67;;;;;;;;;;5092430;28;20197;-77
2023/04/04 10:20:05;;;;;;;6.20;5.70;;;;;;;;;;5102244;28;20341;-77
2023/04/04 10:22:32;;;;;;;7.20;6.50;;;;;;;;;;5096533;28;20586;-78
2023/04/04 10:24:59;;;;;;;7.37;6.67;;;;;;;;;;5102164;28;20193;-77
2023/04/04 10:27:27;;;;;;;14.77;12.97;;;;;;;;;;5093664;28;20201;-78
2023/04/04 10:29:53;;;;;;;9.00;8.20;;;;;;;;;;5106619;28;20260;-79
2023/04/04 10:32:24;;;;;;;8.10;7.40;;;;;;;;;;5093577;28;20671;-78
2023/04/04 10:34:58;;;;;;;8.43;7.63;;;;;;;;;;5093714;28;20192;-78
2023/04/04 10:37:27;;;;;;;15.27;13.60;;;;;;;;;;5093782;28;20693;-77
2023/04/04 10:39:57;;;;;;;14.27;12.17;;;;;;;;;;5107616;28;20227;-81
2023/04/04 10:42:26;;;;;;;9.67;8.87;;;;;;;;;;5093721;28;20348;-79
2023/04/04 10:44:53;;;;;;;7.80;7.13;;;;;;;;;;5096565;28;20208;-77
2023/04/04 10:47:22;;;;;;;9.60;7.83;;;;;;;;;;5103782;28;20208;-77
2023/04/04 10:49:50;;;;;;;7.87;7.07;;;;;;;;;;5097239;28;20252;-77
2023/04/04 10:52:19;;;;;;;11.17;9.77;;;;;;;;;;5102424;28;20703;-78
2023/04/04 10:54:47;;;;;;;9.67;8.67;;;;;;;;;;5111639;28;20234;-77
2023/04/04 10:57:14;;;;;;;9.43;8.60;;;;;;;;;;5102051;28;21030;-77
2023/04/04 10:59:56;;;;;;;17.80;11.70;;;;;;;;;;5111480;28;20599;-78
2023/04/04 11:02:46;;;;;;;7.30;6.67;;;;;;;;;;5100030;28;20200;-78
2023/04/04 11:05:13;;;;;;;10.97;9.87;;;;;;;;;;5102554;28;20616;-77
2023/04/04 11:07:41;;;;;;;16.30;13.40;;;;;;;;;;5110944;28;20666;-77
2023/04/04 11:10:14;;;;;;;8.93;8.10;;;;;;;;;;5101710;28;20224;-79
2023/04/04 11:12:44;;;;;;;6.97;6.33;;;;;;;;;;5106590;28;20613;-77
2023/04/04 11:15:13;;;;;;;5.57;5.13;;;;;;;;;;5104720;28;20223;-78
2023/04/04 11:17:55;;;;;;;7.40;6.70;;;;;;;;;;5099707;28;20276;-79
2023/04/04 11:20:23;;;;;;;14.30;8.93;;;;;;;;;;5113314;28;20207;-78
2023/04/04 11:22:51;;;;;;;15.73;14.20;;;;;;;;;;5105255;28;20204;-79
2023/04/04 11:25:32;;;;;;;13.50;10.20;;;;;;;;;;5107640;28;20599;-78
2023/04/04 11:27:59;;;;;;;14.30;11.40;;;;;;;;;;5113281;28;20203;-78
2023/04/04 11:30:27;;;;;;;7.47;6.77;;;;;;;;;;5112540;28;20212;-78
2023/04/04 11:32:59;;;;;;;6.33;5.73;;;;;;;;;;5113292;28;20234;-78
2023/04/04 11:35:26;;;;;;;10.47;9.30;;;;;;;;;;5094531;28;20218;-79
2023/04/04 11:38:01;;;;;;;10.60;9.50;;;;;;;;;;5092707;28;20210;-78
2023/04/04 11:40:39;;;;;;;9.10;8.20;;;;;;;;;;5092255;28;20204;-78
2023/04/04 11:43:09;;;;;;;11.47;10.20;;;;;;;;;;5106722;28;20764;-77
2023/04/04 11:45:37;;;;;;;9.00;8.10;;;;;;;;;;5112835;28;20207;-77
2023/04/04 11:48:06;;;;;;;7.93;6.40;;;;;;;;;;5098654;28;20222;-77
2023/04/04 11:50:37;;;;;;;8.37;7.57;;;;;;;;;;5102889;28;20283;-77
2023/04/04 11:53:08;;;;;;;12.07;10.87;;;;;;;;;;5095362;28;20703;-77
2023/04/04 11:55:42;;;;;;;11.37;9.83;;;;;;;;;;5101558;28;20332;-78
2023/04/04 11:58:10;;;;;;;8.17;6.77;;;;;;;;;;5092551;28;20279;-78
2023/04/04 12:00:37;;;;;;;9.57;8.43;;;;;;;;;;5092255;28;20204;-77
2023/04/04 12:03:09;;;;;;;10.53;8.97;;;;;;;;;;5111326;28;20205;-78
2023/04/04 12:05:37;;;;;;;7.67;6.90;;;;;;;;;;5098788;28;20277;-77
2023/04/04 12:08:04;;;;;;;11.53;8.57;;;;;;;;;;5092303;28;20214;-78
2023/04/04 12:10:33;;;;;;;8.47;6.67;;;;;;;;;;5105541;28;20335;-78
2023/04/04 12:12:59;;;;;;;9.40;8.50;;;;;;;;;;5105521;28;20632;-78
2023/04/04 12:15:29;;;;;;;9.83;7.77;;;;;;;;;;5105149;28;20199;-83
2023/04/04 12:17:56;;;;;;;13.90;8.00;;;;;;;;;;5099267;28;20207;-78
2023/04/04 12:20:26;;;;;;;10.70;7.70;;;;;;;;;;5098065;28;20230;-78
2023/04/04 12:22:52;;;;;;;10.80;7.57;;;;;;;;;;5104739;28;20207;-77
2023/04/04 12:25:22;;;;;;;7.87;7.03;;;;;;;;;;5105296;28;20198;-78
2023/04/04 12:27:49;;;;;;;7.63;6.83;;;;;;;;;;5099955;28;20202;-77
2023/04/04 12:30:16;;;;;;;7.43;5.80;;;;;;;;;;5098566;28;20220;-78
2023/04/04 12:32:43;;;;;;;7.90;5.77;;;;;;;;;;5103066;28;20578;-80
2023/04/04 12:35:12;;;;;;;8.03;6.77;;;;;;;;;;5105068;28;20648;-77
2023/04/04 12:37:40;;;;;;;8.77;6.07;;;;;;;;;;5091463;28;20239;-77
2023/04/04 12:40:07;;;;;;;25.07;10.70;;;;;;;;;;5091593;28;20230;-78
2023/04/04 12:42:34;;;;;;;5.67;5.10;;;;;;;;;;5101349;28;20298;-78
2023/04/04 12:45:03;;;;;;;6.23;5.57;;;;;;;;;;5097582;28;20195;-78
2023/04/04 12:47:31;;;;;;;13.60;8.80;;;;;;;;;;5110751;28;20286;-78
2023/04/04 12:49:58;;;;;;;11.13;6.47;;;;;;;;;;5111850;28;20703;-80
2023/04/04 12:52:28;;;;;;;9.73;6.50;;;;;;;;;;5100506;28;20200;-77
2023/04/04 12:54:59;;;;;;;5.10;4.70;;;;;;;;;;5091164;28;20214;-77
2023/04/04 12:57:27;;;;;;;8.10;5.87;;;;;;;;;;5091995;28;20251;-78
2023/04/04 12:59:58;;;;;;;6.80;5.73;;;;;;;;;;5104615;28;20598;-77
2023/04/04 13:02:25;;;;;;;6.77;5.60;;;;;;;;;;5091015;28;20295;-78
2023/04/04 13:04:55;;;;;;;12.70;7.23;;;;;;;;;;5104290;28;20195;-77
2023/04/04 13:07:24;;;;;;;7.63;6.87;;;;;;;;;;5091135;28;20200;-78
2023/04/04 13:09:52;;;;;;;9.23;6.93;;;;;;;;;;5091264;28;20224;-78
2023/04/04 13:12:21;;;;;;;15.83;9.67;;;;;;;;;;5092039;28;20208;-78
2023/04/04 13:15:01;;;;;;;13.57;10.90;;;;;;;;;;5103389;28;20195;-77
2023/04/04 13:17:43;;;;;;;7.97;6.90;;;;;;;;;;5094353;28;20207;-78
2023/04/04 13:20:10;;;;;;;10.87;8.20;;;;;;;;;;5111200;28;20317;-78
2023/04/04 13:22:38;;;;;;;9.80;6.00;;;;;;;;;;5097301;28;20202;-77
2023/04/04 13:25:05;;;;;;;32.17;19.33;;;;;;;;;;5098443;28;20192;-77
2023/04/04 13:27:34;;;;;;;17.00;10.17;;;;;;;;;;5097030;28;20187;-78
2023/04/04 13:30:01;;;;;;;8.70;7.63;;;;;;;;;;5097694;28;20214;-80
2023/04/04 13:32:27;;;;;;;10.33;7.10;;;;;;;;;;5110988;28;20192;-78
2023/04/04 13:34:54;;;;;;;8.60;5.80;;;;;;;;;;5111030;28;20207;-78
2023/04/04 13:37:21;;;;;;;8.27;4.43;;;;;;;;;;5103814;28;20276;-78
2023/04/04 13:39:47;;;;;;;8.90;6.27;;;;;;;;;;5091067;28;20224;-78
2023/04/04 13:42:14;;;;;;;8.50;6.93;;;;;;;;;;5110994;28;20200;-78
2023/04/04 13:44:42;;;;;;;6.17;4.93;;;;;;;;;;5096015;28;20192;-77
2023/04/04 13:47:09;;;;;;;5.00;4.60;;;;;;;;;;5098989;28;20265;-78
2023/04/04 13:49:36;;;;;;;6.67;5.97;;;;;;;;;;5110997;28;20226;-78
2023/04/04 13:52:03;;;;;;;4.00;3.70;;;;;;;;;;5110678;28;20199;-77
2023/04/04 13:54:29;;;;;;;3.43;2.70;;;;;;;;;;5095545;28;20284;-77
2023/04/04 13:56:57;;;;;;;2.70;2.43;;;;;;;;;;5090385;28;20269;-77
2023/04/04 13:59:23;;;;;;;4.33;3.00;;;;;;;;;;5093653;28;20223;-77
2023/04/04 14:01:51;;;;;;;7.70;3.73;;;;;;;;;;5093976;28;20233;-77
2023/04/04 14:04:18;;;;;;;4.03;2.40;;;;;;;;;;5094306;28;20194;-77
2023/04/04 14:06:46;;;;;;;12.17;6.03;;;;;;;;;;5104007;28;20249;-77
2023/04/04 14:09:12;;;;;;;3.90;3.00;;;;;;;;;;5097839;28;20251;-77
2023/04/04 14:11:40;;;;;;;2.60;1.93;;;;;;;;;;5093994;28;20216;-77
2023/04/04 14:14:07;;;;;;;2.03;1.83;;;;;;;;;;5107736;28;20256;-78
2023/04/04 14:16:33;;;;;;;2.13;1.93;;;;;;;;;;5094133;28;20735;-78
2023/04/04 14:19:02;;;;;;;3.63;2.37;;;;;;;;;;5094480;28;20253;-78
2023/04/04 14:21:29;;;;;;;1.90;1.80;;;;;;;;;;5103441;28;20199;-77
2023/04/04 14:23:59;;;;;;;3.60;1.23;;;;;;;;;;5100378;28;20247;-77
2023/04/04 14:26:25;;;;;;;1.43;1.33;;;;;;;;;;5103976;28;20200;-78
2023/04/04 14:28:52;;;;;;;1.23;1.03;;;;;;;;;;5097111;28;20211;-77
2023/04/04 14:31:20;;;;;;;0.83;0.77;;;;;;;;;;5113967;28;20199;-77
2023/04/04 14:33:47;;;;;;;2.27;1.77;;;;;;;;;;5096610;28;20670;-77
2023/04/04 14:36:17;;;;;;;2.10;1.10;;;;;;;;;;5093803;28;20273;-77
2023/04/04 14:38:45;;;;;;;1.40;1.30;;;;;;;;;;5093715;28;20197;-78
2023/04/04 14:41:12;;;;;;;2.50;2.17;;;;;;;;;;5093609;28;20300;-77
2023/04/04 14:43:41;;;;;;;1.17;1.17;;;;;;;;;;5098396;28;20192;-77
2023/04/04 14:46:08;;;;;;;2.23;1.10;;;;;;;;;;5113622;28;20264;-78
2023/04/04 14:48:35;;;;;;;6.80;2.97;;;;;;;;;;5106897;28;20203;-78
2023/04/04 14:51:01;;;;;;;1.13;0.80;;;;;;;;;;5090369;28;20209;-76